sensor_id;sensor_type;location;lat;lon;timestamp;P1;durP1;ratioP1;P2;durP2;ratioP2
51578;SDS011;47998;53.242;6.386;2023-07-13T00:01:42;14.77;;;4.07;;
51578;SDS011;47998;53.242;6.386;2023-07-13T00:04:08;18.65;;;4.53;;
51578;SDS011;47998;53.242;6.386;2023-07-13T00:06:34;14.98;;;3.63;;
51578;SDS011;47998;53.242;6.386;2023-07-13T00:09:00;13.38;;;4.47;;
51578;SDS011;47998;53.242;6.386;2023-07-13T00:11:26;12.77;;;3.65;;
51578;SDS011;47998;53.242;6.386;2023-07-13T00:13:52;18.48;;;4.40;;
51578;SDS011;47998;53.242;6.386;2023-07-13T00:16:18;17.08;;;4.43;;
51578;SDS011;47998;53.242;6.386;2023-07-13T00:18:45;15.25;;;4.03;;
51578;SDS011;47998;53.242;6.386;2023-07-13T00:21:11;15.45;;;4.32;;
51578;SDS011;47998;53.242;6.386;2023-07-13T00:23:38;18.45;;;5.47;;
51578;SDS011;47998;53.242;6.386;2023-07-13T00:26:06;16.88;;;4.38;;
51578;SDS011;47998;53.242;6.386;2023-07-13T00:28:33;19.95;;;4.20;;
51578;SDS011;47998;53.242;6.386;2023-07-13T00:31:00;18.77;;;4.78;;
51578;SDS011;47998;53.242;6.386;2023-07-13T00:33:27;16.50;;;4.15;;
51578;SDS011;47998;53.242;6.386;2023-07-13T00:35:54;14.57;;;4.50;;
51578;SDS011;47998;53.242;6.386;2023-07-13T00:38:20;20.40;;;4.50;;
51578;SDS011;47998;53.242;6.386;2023-07-13T00:40:47;18.75;;;4.03;;
51578;SDS011;47998;53.242;6.386;2023-07-13T00:43:13;17.17;;;4.10;;
51578;SDS011;47998;53.242;6.386;2023-07-13T00:48:11;15.40;;;4.70;;
51578;SDS011;47998;53.242;6.386;2023-07-13T00:50:39;13.43;;;3.80;;
51578;SDS011;47998;53.242;6.386;2023-07-13T00:53:06;17.23;;;5.22;;
51578;SDS011;47998;53.242;6.386;2023-07-13T00:55:33;14.48;;;4.35;;
51578;SDS011;47998;53.242;6.386;2023-07-13T00:58:01;22.05;;;4.50;;
51578;SDS011;47998;53.242;6.386;2023-07-13T01:00:27;17.23;;;4.90;;
51578;SDS011;47998;53.242;6.386;2023-07-13T01:02:54;22.80;;;4.78;;
51578;SDS011;47998;53.242;6.386;2023-07-13T01:05:21;14.45;;;4.40;;
51578;SDS011;47998;53.242;6.386;2023-07-13T01:07:48;20.30;;;5.05;;
51578;SDS011;47998;53.242;6.386;2023-07-13T01:10:16;17.02;;;4.00;;
51578;SDS011;47998;53.242;6.386;2023-07-13T01:12:46;19.35;;;4.43;;
51578;SDS011;47998;53.242;6.386;2023-07-13T01:18:07;12.57;;;3.53;;
51578;SDS011;47998;53.242;6.386;2023-07-13T01:20:39;16.88;;;4.20;;
51578;SDS011;47998;53.242;6.386;2023-07-13T01:23:07;25.52;;;4.25;;
51578;SDS011;47998;53.242;6.386;2023-07-13T01:25:35;15.80;;;4.00;;
51578;SDS011;47998;53.242;6.386;2023-07-13T01:28:02;11.20;;;3.55;;
51578;SDS011;47998;53.242;6.386;2023-07-13T01:30:29;12.82;;;2.80;;
51578;SDS011;47998;53.242;6.386;2023-07-13T01:32:54;11.73;;;3.00;;
51578;SDS011;47998;53.242;6.386;2023-07-13T01:35:20;13.65;;;2.60;;
51578;SDS011;47998;53.242;6.386;2023-07-13T01:37:46;11.48;;;2.35;;
51578;SDS011;47998;53.242;6.386;2023-07-13T01:40:12;14.10;;;3.17;;
51578;SDS011;47998;53.242;6.386;2023-07-13T01:42:38;12.23;;;2.95;;
51578;SDS011;47998;53.242;6.386;2023-07-13T01:45:04;9.52;;;2.35;;
51578;SDS011;47998;53.242;6.386;2023-07-13T01:47:30;10.13;;;2.70;;
51578;SDS011;47998;53.242;6.386;2023-07-13T01:49:57;7.65;;;1.88;;
51578;SDS011;47998;53.242;6.386;2023-07-13T01:52:23;10.02;;;1.70;;
51578;SDS011;47998;53.242;6.386;2023-07-13T01:54:48;7.07;;;1.65;;
51578;SDS011;47998;53.242;6.386;2023-07-13T01:57:14;5.00;;;2.05;;
51578;SDS011;47998;53.242;6.386;2023-07-13T01:59:40;7.00;;;2.25;;
51578;SDS011;47998;53.242;6.386;2023-07-13T02:02:06;5.40;;;1.17;;
51578;SDS011;47998;53.242;6.386;2023-07-13T02:04:32;5.63;;;1.10;;
51578;SDS011;47998;53.242;6.386;2023-07-13T02:06:58;5.90;;;1.58;;
51578;SDS011;47998;53.242;6.386;2023-07-13T02:09:23;4.65;;;1.00;;
51578;SDS011;47998;53.242;6.386;2023-07-13T02:11:49;6.25;;;0.80;;
51578;SDS011;47998;53.242;6.386;2023-07-13T02:14:15;5.03;;;1.05;;
51578;SDS011;47998;53.242;6.386;2023-07-13T02:16:41;3.33;;;0.95;;
51578;SDS011;47998;53.242;6.386;2023-07-13T02:19:07;4.53;;;0.95;;
51578;SDS011;47998;53.242;6.386;2023-07-13T02:21:33;4.30;;;0.70;;
51578;SDS011;47998;53.242;6.386;2023-07-13T02:23:59;5.82;;;0.90;;
51578;SDS011;47998;53.242;6.386;2023-07-13T02:26:25;5.68;;;1.40;;
51578;SDS011;47998;53.242;6.386;2023-07-13T02:28:51;5.15;;;1.25;;
51578;SDS011;47998;53.242;6.386;2023-07-13T02:31:17;2.90;;;0.68;;
51578;SDS011;47998;53.242;6.386;2023-07-13T02:33:43;5.68;;;1.10;;
51578;SDS011;47998;53.242;6.386;2023-07-13T02:36:09;3.10;;;1.05;;
51578;SDS011;47998;53.242;6.386;2023-07-13T02:38:36;6.45;;;0.88;;
51578;SDS011;47998;53.242;6.386;2023-07-13T02:41:05;5.88;;;1.48;;
51578;SDS011;47998;53.242;6.386;2023-07-13T02:43:32;5.80;;;1.27;;
51578;SDS011;47998;53.242;6.386;2023-07-13T02:45:58;4.63;;;1.17;;
51578;SDS011;47998;53.242;6.386;2023-07-13T02:48:29;6.00;;;1.25;;
51578;SDS011;47998;53.242;6.386;2023-07-13T02:50:55;5.68;;;0.93;;
51578;SDS011;47998;53.242;6.386;2023-07-13T02:53:20;6.18;;;1.25;;
51578;SDS011;47998;53.242;6.386;2023-07-13T02:55:46;2.90;;;0.70;;
51578;SDS011;47998;53.242;6.386;2023-07-13T02:58:12;3.75;;;1.10;;
51578;SDS011;47998;53.242;6.386;2023-07-13T03:00:42;4.88;;;0.85;;
51578;SDS011;47998;53.242;6.386;2023-07-13T03:03:09;5.63;;;1.10;;
51578;SDS011;47998;53.242;6.386;2023-07-13T03:05:37;6.57;;;1.10;;
51578;SDS011;47998;53.242;6.386;2023-07-13T03:08:03;5.40;;;1.23;;
51578;SDS011;47998;53.242;6.386;2023-07-13T03:10:29;5.07;;;1.35;;
51578;SDS011;47998;53.242;6.386;2023-07-13T03:12:54;5.03;;;1.30;;
51578;SDS011;47998;53.242;6.386;2023-07-13T03:15:20;5.53;;;1.25;;
51578;SDS011;47998;53.242;6.386;2023-07-13T03:17:46;9.77;;;2.40;;
51578;SDS011;47998;53.242;6.386;2023-07-13T03:20:12;9.48;;;1.80;;
51578;SDS011;47998;53.242;6.386;2023-07-13T03:22:37;8.75;;;1.98;;
51578;SDS011;47998;53.242;6.386;2023-07-13T03:25:03;8.35;;;1.98;;
51578;SDS011;47998;53.242;6.386;2023-07-13T03:27:30;8.07;;;2.25;;
51578;SDS011;47998;53.242;6.386;2023-07-13T03:29:55;8.35;;;2.17;;
51578;SDS011;47998;53.242;6.386;2023-07-13T03:32:21;6.57;;;2.10;;
51578;SDS011;47998;53.242;6.386;2023-07-13T03:34:47;9.18;;;2.95;;
51578;SDS011;47998;53.242;6.386;2023-07-13T03:37:13;9.20;;;2.88;;
51578;SDS011;47998;53.242;6.386;2023-07-13T03:39:38;11.85;;;3.03;;
51578;SDS011;47998;53.242;6.386;2023-07-13T03:42:04;19.38;;;3.60;;
51578;SDS011;47998;53.242;6.386;2023-07-13T03:44:30;10.95;;;3.55;;
51578;SDS011;47998;53.242;6.386;2023-07-13T03:46:56;13.20;;;5.05;;
51578;SDS011;47998;53.242;6.386;2023-07-13T03:49:22;14.35;;;4.57;;
51578;SDS011;47998;53.242;6.386;2023-07-13T03:51:48;15.35;;;4.47;;
51578;SDS011;47998;53.242;6.386;2023-07-13T03:54:13;14.27;;;5.10;;
51578;SDS011;47998;53.242;6.386;2023-07-13T03:56:39;19.77;;;5.47;;
51578;SDS011;47998;53.242;6.386;2023-07-13T03:59:05;18.17;;;5.97;;
51578;SDS011;47998;53.242;6.386;2023-07-13T04:01:30;15.85;;;5.55;;
51578;SDS011;47998;53.242;6.386;2023-07-13T04:03:56;15.40;;;5.22;;
51578;SDS011;47998;53.242;6.386;2023-07-13T04:06:23;24.33;;;5.97;;
51578;SDS011;47998;53.242;6.386;2023-07-13T04:08:52;21.63;;;6.97;;
51578;SDS011;47998;53.242;6.386;2023-07-13T04:11:20;21.58;;;5.88;;
51578;SDS011;47998;53.242;6.386;2023-07-13T04:13:47;12.88;;;5.88;;
51578;SDS011;47998;53.242;6.386;2023-07-13T04:16:14;18.38;;;6.40;;
51578;SDS011;47998;53.242;6.386;2023-07-13T04:18:41;21.27;;;5.78;;
51578;SDS011;47998;53.242;6.386;2023-07-13T04:21:07;19.20;;;5.68;;
51578;SDS011;47998;53.242;6.386;2023-07-13T04:23:34;21.80;;;6.43;;
51578;SDS011;47998;53.242;6.386;2023-07-13T04:26:00;25.20;;;6.18;;
51578;SDS011;47998;53.242;6.386;2023-07-13T04:28:26;16.92;;;4.93;;
51578;SDS011;47998;53.242;6.386;2023-07-13T04:30:52;20.52;;;6.00;;
51578;SDS011;47998;53.242;6.386;2023-07-13T04:33:18;13.68;;;5.55;;
51578;SDS011;47998;53.242;6.386;2023-07-13T04:35:48;22.70;;;5.97;;
51578;SDS011;47998;53.242;6.386;2023-07-13T04:38:15;18.92;;;6.05;;
51578;SDS011;47998;53.242;6.386;2023-07-13T04:40:47;21.77;;;5.40;;
51578;SDS011;47998;53.242;6.386;2023-07-13T04:43:13;20.80;;;6.03;;
51578;SDS011;47998;53.242;6.386;2023-07-13T04:45:38;17.83;;;4.97;;
51578;SDS011;47998;53.242;6.386;2023-07-13T04:48:04;13.35;;;4.75;;
51578;SDS011;47998;53.242;6.386;2023-07-13T04:50:30;17.75;;;5.07;;
51578;SDS011;47998;53.242;6.386;2023-07-13T04:52:56;20.98;;;5.72;;
51578;SDS011;47998;53.242;6.386;2023-07-13T04:55:22;19.90;;;5.53;;
51578;SDS011;47998;53.242;6.386;2023-07-13T04:57:47;15.93;;;5.15;;
51578;SDS011;47998;53.242;6.386;2023-07-13T05:00:13;18.98;;;4.40;;
51578;SDS011;47998;53.242;6.386;2023-07-13T05:02:42;14.20;;;4.10;;
51578;SDS011;47998;53.242;6.386;2023-07-13T05:05:09;16.90;;;4.35;;
51578;SDS011;47998;53.242;6.386;2023-07-13T05:07:34;16.10;;;4.45;;
51578;SDS011;47998;53.242;6.386;2023-07-13T05:10:01;18.23;;;4.20;;
51578;SDS011;47998;53.242;6.386;2023-07-13T05:12:29;19.40;;;4.95;;
51578;SDS011;47998;53.242;6.386;2023-07-13T05:14:55;20.35;;;4.93;;
51578;SDS011;47998;53.242;6.386;2023-07-13T05:17:20;13.60;;;4.47;;
51578;SDS011;47998;53.242;6.386;2023-07-13T05:19:46;17.65;;;4.63;;
51578;SDS011;47998;53.242;6.386;2023-07-13T05:22:12;14.88;;;3.88;;
51578;SDS011;47998;53.242;6.386;2023-07-13T05:24:38;15.55;;;4.65;;
51578;SDS011;47998;53.242;6.386;2023-07-13T05:27:03;10.35;;;3.35;;
51578;SDS011;47998;53.242;6.386;2023-07-13T05:29:29;12.68;;;4.07;;
51578;SDS011;47998;53.242;6.386;2023-07-13T05:31:55;12.65;;;3.50;;
51578;SDS011;47998;53.242;6.386;2023-07-13T05:34:21;11.70;;;3.60;;
51578;SDS011;47998;53.242;6.386;2023-07-13T05:36:47;14.45;;;3.97;;
51578;SDS011;47998;53.242;6.386;2023-07-13T05:39:14;9.45;;;3.35;;
51578;SDS011;47998;53.242;6.386;2023-07-13T05:41:40;14.05;;;3.75;;
51578;SDS011;47998;53.242;6.386;2023-07-13T05:44:05;12.23;;;3.47;;
51578;SDS011;47998;53.242;6.386;2023-07-13T05:46:31;20.38;;;3.28;;
51578;SDS011;47998;53.242;6.386;2023-07-13T05:49:00;14.88;;;3.28;;
51578;SDS011;47998;53.242;6.386;2023-07-13T05:51:26;11.60;;;3.80;;
51578;SDS011;47998;53.242;6.386;2023-07-13T05:53:51;12.30;;;2.38;;
51578;SDS011;47998;53.242;6.386;2023-07-13T05:56:17;9.70;;;2.78;;
51578;SDS011;47998;53.242;6.386;2023-07-13T05:58:43;12.85;;;2.92;;
51578;SDS011;47998;53.242;6.386;2023-07-13T06:01:10;8.57;;;2.67;;
51578;SDS011;47998;53.242;6.386;2023-07-13T06:03:37;8.07;;;2.42;;
51578;SDS011;47998;53.242;6.386;2023-07-13T06:06:04;12.07;;;3.00;;
51578;SDS011;47998;53.242;6.386;2023-07-13T06:08:31;13.93;;;2.90;;
51578;SDS011;47998;53.242;6.386;2023-07-13T06:13:28;14.25;;;3.35;;
51578;SDS011;47998;53.242;6.386;2023-07-13T06:15:54;9.30;;;2.20;;
51578;SDS011;47998;53.242;6.386;2023-07-13T06:18:20;12.48;;;2.88;;
51578;SDS011;47998;53.242;6.386;2023-07-13T06:20:46;11.40;;;2.50;;
51578;SDS011;47998;53.242;6.386;2023-07-13T06:23:11;8.05;;;2.30;;
51578;SDS011;47998;53.242;6.386;2023-07-13T06:25:37;10.25;;;1.85;;
51578;SDS011;47998;53.242;6.386;2023-07-13T06:28:03;8.57;;;2.05;;
51578;SDS011;47998;53.242;6.386;2023-07-13T06:30:28;6.65;;;2.00;;
51578;SDS011;47998;53.242;6.386;2023-07-13T06:32:54;10.85;;;2.20;;
51578;SDS011;47998;53.242;6.386;2023-07-13T06:35:20;9.45;;;1.92;;
51578;SDS011;47998;53.242;6.386;2023-07-13T06:37:45;10.45;;;2.30;;
51578;SDS011;47998;53.242;6.386;2023-07-13T06:40:12;9.27;;;1.60;;
51578;SDS011;47998;53.242;6.386;2023-07-13T06:42:38;6.07;;;2.30;;
51578;SDS011;47998;53.242;6.386;2023-07-13T06:45:04;9.30;;;2.05;;
51578;SDS011;47998;53.242;6.386;2023-07-13T06:47:30;8.48;;;1.92;;
51578;SDS011;47998;53.242;6.386;2023-07-13T06:49:57;8.30;;;2.00;;
51578;SDS011;47998;53.242;6.386;2023-07-13T06:52:23;11.23;;;2.10;;
51578;SDS011;47998;53.242;6.386;2023-07-13T06:54:48;8.85;;;1.60;;
51578;SDS011;47998;53.242;6.386;2023-07-13T06:57:14;10.40;;;2.03;;
51578;SDS011;47998;53.242;6.386;2023-07-13T06:59:40;7.65;;;1.80;;
51578;SDS011;47998;53.242;6.386;2023-07-13T07:02:07;6.22;;;2.13;;
51578;SDS011;47998;53.242;6.386;2023-07-13T07:04:35;3.53;;;1.10;;
51578;SDS011;47998;53.242;6.386;2023-07-13T07:07:01;7.63;;;1.48;;
51578;SDS011;47998;53.242;6.386;2023-07-13T07:09:27;7.25;;;1.35;;
51578;SDS011;47998;53.242;6.386;2023-07-13T07:11:55;6.13;;;1.33;;
51578;SDS011;47998;53.242;6.386;2023-07-13T07:14:21;6.28;;;1.40;;
51578;SDS011;47998;53.242;6.386;2023-07-13T07:16:46;6.95;;;1.50;;
51578;SDS011;47998;53.242;6.386;2023-07-13T07:19:12;5.03;;;1.35;;
51578;SDS011;47998;53.242;6.386;2023-07-13T07:21:38;9.60;;;1.30;;
51578;SDS011;47998;53.242;6.386;2023-07-13T07:24:04;4.43;;;1.50;;
51578;SDS011;47998;53.242;6.386;2023-07-13T07:26:30;4.25;;;1.60;;
51578;SDS011;47998;53.242;6.386;2023-07-13T07:28:56;5.65;;;1.30;;
51578;SDS011;47998;53.242;6.386;2023-07-13T07:31:22;6.00;;;1.60;;
51578;SDS011;47998;53.242;6.386;2023-07-13T07:33:48;4.15;;;1.10;;
51578;SDS011;47998;53.242;6.386;2023-07-13T07:36:15;5.40;;;1.52;;
51578;SDS011;47998;53.242;6.386;2023-07-13T07:38:41;5.95;;;1.33;;
51578;SDS011;47998;53.242;6.386;2023-07-13T07:41:07;6.75;;;1.88;;
51578;SDS011;47998;53.242;6.386;2023-07-13T07:43:33;5.00;;;1.73;;
51578;SDS011;47998;53.242;6.386;2023-07-13T07:45:59;9.38;;;2.10;;
51578;SDS011;47998;53.242;6.386;2023-07-13T07:48:25;7.45;;;2.08;;
51578;SDS011;47998;53.242;6.386;2023-07-13T07:50:51;5.47;;;1.23;;
51578;SDS011;47998;53.242;6.386;2023-07-13T07:53:16;4.43;;;1.20;;
51578;SDS011;47998;53.242;6.386;2023-07-13T07:55:42;4.70;;;1.38;;
51578;SDS011;47998;53.242;6.386;2023-07-13T07:58:10;5.97;;;1.20;;
51578;SDS011;47998;53.242;6.386;2023-07-13T08:00:35;6.32;;;1.20;;
51578;SDS011;47998;53.242;6.386;2023-07-13T08:03:01;2.90;;;1.05;;
51578;SDS011;47998;53.242;6.386;2023-07-13T08:05:28;3.65;;;1.40;;
51578;SDS011;47998;53.242;6.386;2023-07-13T08:07:54;4.47;;;0.90;;
51578;SDS011;47998;53.242;6.386;2023-07-13T08:10:19;4.65;;;1.02;;
51578;SDS011;47998;53.242;6.386;2023-07-13T08:12:45;8.25;;;1.45;;
51578;SDS011;47998;53.242;6.386;2023-07-13T08:15:13;6.63;;;1.30;;
51578;SDS011;47998;53.242;6.386;2023-07-13T08:17:40;8.10;;;1.33;;
51578;SDS011;47998;53.242;6.386;2023-07-13T08:20:06;3.78;;;1.35;;
51578;SDS011;47998;53.242;6.386;2023-07-13T08:22:34;9.05;;;1.60;;
51578;SDS011;47998;53.242;6.386;2023-07-13T08:25:00;6.55;;;1.52;;
51578;SDS011;47998;53.242;6.386;2023-07-13T08:27:26;6.57;;;1.63;;
51578;SDS011;47998;53.242;6.386;2023-07-13T08:29:53;4.28;;;1.15;;
51578;SDS011;47998;53.242;6.386;2023-07-13T08:32:20;4.45;;;1.50;;
51578;SDS011;47998;53.242;6.386;2023-07-13T08:34:46;6.13;;;1.55;;
51578;SDS011;47998;53.242;6.386;2023-07-13T08:37:13;5.65;;;1.50;;
51578;SDS011;47998;53.242;6.386;2023-07-13T08:39:38;7.75;;;2.22;;
51578;SDS011;47998;53.242;6.386;2023-07-13T08:42:05;7.55;;;1.40;;
51578;SDS011;47998;53.242;6.386;2023-07-13T08:47:46;7.28;;;1.48;;
51578;SDS011;47998;53.242;6.386;2023-07-13T08:50:19;5.45;;;1.63;;
51578;SDS011;47998;53.242;6.386;2023-07-13T08:52:50;8.50;;;2.45;;
51578;SDS011;47998;53.242;6.386;2023-07-13T08:55:29;4.45;;;1.65;;
51578;SDS011;47998;53.242;6.386;2023-07-13T08:58:11;11.80;;;2.70;;
51578;SDS011;47998;53.242;6.386;2023-07-13T09:03:18;6.40;;;1.58;;
51578;SDS011;47998;53.242;6.386;2023-07-13T09:05:49;6.40;;;1.83;;
51578;SDS011;47998;53.242;6.386;2023-07-13T09:08:30;8.27;;;1.65;;
51578;SDS011;47998;53.242;6.386;2023-07-13T09:11:27;6.28;;;1.92;;
51578;SDS011;47998;53.242;6.386;2023-07-13T09:16:42;3.75;;;1.40;;
51578;SDS011;47998;53.242;6.386;2023-07-13T09:19:11;7.05;;;1.80;;
51578;SDS011;47998;53.242;6.386;2023-07-13T09:21:44;5.82;;;1.50;;
51578;SDS011;47998;53.242;6.386;2023-07-13T09:24:30;7.25;;;1.80;;
51578;SDS011;47998;53.242;6.386;2023-07-13T09:27:00;6.78;;;1.70;;
51578;SDS011;47998;53.242;6.386;2023-07-13T09:29:33;4.10;;;1.40;;
51578;SDS011;47998;53.242;6.386;2023-07-13T09:32:03;6.03;;;1.25;;
51578;SDS011;47998;53.242;6.386;2023-07-13T09:34:33;8.50;;;1.80;;
51578;SDS011;47998;53.242;6.386;2023-07-13T09:36:59;5.47;;;1.30;;
51578;SDS011;47998;53.242;6.386;2023-07-13T09:39:26;3.15;;;0.88;;
51578;SDS011;47998;53.242;6.386;2023-07-13T09:47:17;1.20;;;0.57;;
51578;SDS011;47998;53.242;6.386;2023-07-13T09:49:48;2.95;;;0.68;;
51578;SDS011;47998;53.242;6.386;2023-07-13T09:52:23;1.70;;;0.57;;
51578;SDS011;47998;53.242;6.386;2023-07-13T09:54:51;2.90;;;0.93;;
51578;SDS011;47998;53.242;6.386;2023-07-13T09:59:51;2.55;;;0.65;;
51578;SDS011;47998;53.242;6.386;2023-07-13T10:02:35;2.83;;;0.95;;
51578;SDS011;47998;53.242;6.386;2023-07-13T10:05:11;1.90;;;0.65;;
51578;SDS011;47998;53.242;6.386;2023-07-13T10:07:43;3.25;;;0.80;;
51578;SDS011;47998;53.242;6.386;2023-07-13T10:10:27;4.70;;;0.60;;
51578;SDS011;47998;53.242;6.386;2023-07-13T10:12:53;5.93;;;1.00;;
51578;SDS011;47998;53.242;6.386;2023-07-13T10:15:19;7.47;;;0.93;;
51578;SDS011;47998;53.242;6.386;2023-07-13T10:17:54;2.53;;;0.82;;
51578;SDS011;47998;53.242;6.386;2023-07-13T10:20:24;1.65;;;0.40;;
51578;SDS011;47998;53.242;6.386;2023-07-13T10:22:57;3.63;;;0.68;;
51578;SDS011;47998;53.242;6.386;2023-07-13T10:25:34;2.05;;;0.32;;
51578;SDS011;47998;53.242;6.386;2023-07-13T10:28:51;2.65;;;0.50;;
51578;SDS011;47998;53.242;6.386;2023-07-13T10:30:50;2.78;;;1.13;;
51578;SDS011;47998;53.242;6.386;2023-07-13T10:33:19;2.15;;;0.45;;
51578;SDS011;47998;53.242;6.386;2023-07-13T10:35:47;2.08;;;0.40;;
51578;SDS011;47998;53.242;6.386;2023-07-13T10:38:22;1.47;;;0.37;;
51578;SDS011;47998;53.242;6.386;2023-07-13T10:43:20;1.08;;;0.30;;
51578;SDS011;47998;53.242;6.386;2023-07-13T10:45:49;3.08;;;0.90;;
51578;SDS011;47998;53.242;6.386;2023-07-13T10:48:16;2.65;;;0.38;;
51578;SDS011;47998;53.242;6.386;2023-07-13T10:50:44;1.80;;;0.25;;
51578;SDS011;47998;53.242;6.386;2023-07-13T10:53:19;3.05;;;0.60;;
51578;SDS011;47998;53.242;6.386;2023-07-13T10:58:24;1.90;;;0.60;;
51578;SDS011;47998;53.242;6.386;2023-07-13T11:01:06;5.40;;;1.30;;
51578;SDS011;47998;53.242;6.386;2023-07-13T11:03:33;1.83;;;0.63;;
51578;SDS011;47998;53.242;6.386;2023-07-13T11:06:06;6.05;;;0.90;;
51578;SDS011;47998;53.242;6.386;2023-07-13T11:08:38;3.05;;;1.45;;
51578;SDS011;47998;53.242;6.386;2023-07-13T11:18:47;1.65;;;0.60;;
51578;SDS011;47998;53.242;6.386;2023-07-13T11:23:43;2.63;;;0.95;;
51578;SDS011;47998;53.242;6.386;2023-07-13T11:29:36;4.22;;;0.45;;
51578;SDS011;47998;53.242;6.386;2023-07-13T11:32:22;5.25;;;0.90;;
51578;SDS011;47998;53.242;6.386;2023-07-13T11:34:51;4.97;;;0.88;;
51578;SDS011;47998;53.242;6.386;2023-07-13T11:37:21;3.50;;;0.80;;
51578;SDS011;47998;53.242;6.386;2023-07-13T11:39:48;7.47;;;1.05;;
51578;SDS011;47998;53.242;6.386;2023-07-13T11:42:17;2.65;;;0.80;;
51578;SDS011;47998;53.242;6.386;2023-07-13T11:44:46;3.70;;;0.88;;
51578;SDS011;47998;53.242;6.386;2023-07-13T11:47:18;4.85;;;1.17;;
51578;SDS011;47998;53.242;6.386;2023-07-13T11:49:53;2.97;;;0.80;;
51578;SDS011;47998;53.242;6.386;2023-07-13T11:52:36;3.80;;;1.17;;
51578;SDS011;47998;53.242;6.386;2023-07-13T11:55:03;3.15;;;0.88;;
51578;SDS011;47998;53.242;6.386;2023-07-13T11:57:52;8.10;;;0.75;;
51578;SDS011;47998;53.242;6.386;2023-07-13T12:00:23;5.60;;;0.73;;
51578;SDS011;47998;53.242;6.386;2023-07-13T12:02:53;2.78;;;0.98;;
51578;SDS011;47998;53.242;6.386;2023-07-13T12:05:24;3.65;;;1.00;;
51578;SDS011;47998;53.242;6.386;2023-07-13T12:07:50;2.85;;;0.88;;
51578;SDS011;47998;53.242;6.386;2023-07-13T12:10:17;5.43;;;1.38;;
51578;SDS011;47998;53.242;6.386;2023-07-13T12:12:55;3.90;;;1.20;;
51578;SDS011;47998;53.242;6.386;2023-07-13T12:15:38;4.25;;;0.88;;
51578;SDS011;47998;53.242;6.386;2023-07-13T12:18:11;7.82;;;1.10;;
51578;SDS011;47998;53.242;6.386;2023-07-13T12:20:40;2.47;;;0.70;;
51578;SDS011;47998;53.242;6.386;2023-07-13T12:23:06;2.05;;;0.63;;
51578;SDS011;47998;53.242;6.386;2023-07-13T12:25:44;17.92;;;1.95;;
51578;SDS011;47998;53.242;6.386;2023-07-13T12:28:20;6.72;;;0.93;;
51578;SDS011;47998;53.242;6.386;2023-07-13T12:30:48;1.05;;;0.47;;
51578;SDS011;47998;53.242;6.386;2023-07-13T12:33:15;5.15;;;0.90;;
51578;SDS011;47998;53.242;6.386;2023-07-13T12:35:43;5.32;;;0.80;;
51578;SDS011;47998;53.242;6.386;2023-07-13T12:38:21;3.88;;;0.88;;
51578;SDS011;47998;53.242;6.386;2023-07-13T12:40:49;3.75;;;0.60;;
51578;SDS011;47998;53.242;6.386;2023-07-13T12:43:16;3.40;;;0.80;;
51578;SDS011;47998;53.242;6.386;2023-07-13T12:46:04;3.20;;;0.95;;
51578;SDS011;47998;53.242;6.386;2023-07-13T12:48:41;4.53;;;1.33;;
51578;SDS011;47998;53.242;6.386;2023-07-13T12:51:09;7.95;;;1.65;;
51578;SDS011;47998;53.242;6.386;2023-07-13T12:53:40;4.22;;;1.15;;
51578;SDS011;47998;53.242;6.386;2023-07-13T12:56:18;6.55;;;1.77;;
51578;SDS011;47998;53.242;6.386;2023-07-13T12:58:49;5.25;;;1.70;;
51578;SDS011;47998;53.242;6.386;2023-07-13T13:01:22;3.30;;;1.13;;
51578;SDS011;47998;53.242;6.386;2023-07-13T13:03:51;7.03;;;1.60;;
51578;SDS011;47998;53.242;6.386;2023-07-13T13:08:49;6.63;;;1.73;;
51578;SDS011;47998;53.242;6.386;2023-07-13T13:11:18;13.65;;;2.47;;
51578;SDS011;47998;53.242;6.386;2023-07-13T13:13:45;4.60;;;1.52;;
51578;SDS011;47998;53.242;6.386;2023-07-13T13:16:19;4.80;;;1.30;;
51578;SDS011;47998;53.242;6.386;2023-07-13T13:18:51;6.03;;;2.00;;
51578;SDS011;47998;53.242;6.386;2023-07-13T13:21:19;6.10;;;1.52;;
51578;SDS011;47998;53.242;6.386;2023-07-13T13:23:45;5.63;;;1.20;;
51578;SDS011;47998;53.242;6.386;2023-07-13T13:26:12;5.63;;;1.70;;
51578;SDS011;47998;53.242;6.386;2023-07-13T13:28:43;9.77;;;1.70;;
51578;SDS011;47998;53.242;6.386;2023-07-13T13:31:12;6.68;;;1.67;;
51578;SDS011;47998;53.242;6.386;2023-07-13T13:33:42;4.78;;;1.83;;
51578;SDS011;47998;53.242;6.386;2023-07-13T13:36:14;6.03;;;1.17;;
51578;SDS011;47998;53.242;6.386;2023-07-13T13:38:41;2.92;;;0.93;;
51578;SDS011;47998;53.242;6.386;2023-07-13T13:41:12;4.72;;;1.02;;
51578;SDS011;47998;53.242;6.386;2023-07-13T13:43:39;6.82;;;1.75;;
51578;SDS011;47998;53.242;6.386;2023-07-13T13:46:16;4.93;;;1.13;;
51578;SDS011;47998;53.242;6.386;2023-07-13T13:48:44;3.45;;;1.10;;
51578;SDS011;47998;53.242;6.386;2023-07-13T13:51:14;4.72;;;1.00;;
51578;SDS011;47998;53.242;6.386;2023-07-13T13:53:48;4.95;;;0.98;;
51578;SDS011;47998;53.242;6.386;2023-07-13T13:56:14;2.70;;;0.82;;
51578;SDS011;47998;53.242;6.386;2023-07-13T13:58:42;3.45;;;0.95;;
51578;SDS011;47998;53.242;6.386;2023-07-13T14:01:20;4.93;;;1.17;;
51578;SDS011;47998;53.242;6.386;2023-07-13T14:03:48;3.75;;;0.93;;
51578;SDS011;47998;53.242;6.386;2023-07-13T14:06:16;3.65;;;1.25;;
51578;SDS011;47998;53.242;6.386;2023-07-13T14:08:43;2.85;;;1.10;;
51578;SDS011;47998;53.242;6.386;2023-07-13T14:11:12;4.40;;;1.00;;
51578;SDS011;47998;53.242;6.386;2023-07-13T14:13:44;5.50;;;1.67;;
51578;SDS011;47998;53.242;6.386;2023-07-13T14:16:16;3.78;;;0.88;;
51578;SDS011;47998;53.242;6.386;2023-07-13T14:18:45;4.88;;;1.38;;
51578;SDS011;47998;53.242;6.386;2023-07-13T14:21:15;4.07;;;0.70;;
51578;SDS011;47998;53.242;6.386;2023-07-13T14:23:43;4.43;;;1.13;;
51578;SDS011;47998;53.242;6.386;2023-07-13T14:26:14;3.42;;;1.00;;
51578;SDS011;47998;53.242;6.386;2023-07-13T14:28:43;3.65;;;1.38;;
51578;SDS011;47998;53.242;6.386;2023-07-13T14:31:14;5.93;;;1.20;;
51578;SDS011;47998;53.242;6.386;2023-07-13T14:33:41;3.85;;;1.42;;
51578;SDS011;47998;53.242;6.386;2023-07-13T14:36:27;5.93;;;1.30;;
51578;SDS011;47998;53.242;6.386;2023-07-13T14:38:58;5.28;;;1.30;;
51578;SDS011;47998;53.242;6.386;2023-07-13T14:41:25;4.57;;;1.15;;
51578;SDS011;47998;53.242;6.386;2023-07-13T14:43:52;5.03;;;1.15;;
51578;SDS011;47998;53.242;6.386;2023-07-13T14:46:29;3.30;;;0.80;;
51578;SDS011;47998;53.242;6.386;2023-07-13T14:49:02;7.45;;;1.73;;
51578;SDS011;47998;53.242;6.386;2023-07-13T14:51:38;5.68;;;1.05;;
51578;SDS011;47998;53.242;6.386;2023-07-13T14:54:05;4.65;;;1.30;;
51578;SDS011;47998;53.242;6.386;2023-07-13T14:56:33;5.90;;;0.82;;
51578;SDS011;47998;53.242;6.386;2023-07-13T14:58:59;3.20;;;1.02;;
51578;SDS011;47998;53.242;6.386;2023-07-13T15:01:25;5.47;;;1.67;;
51578;SDS011;47998;53.242;6.386;2023-07-13T15:03:52;5.18;;;1.27;;
51578;SDS011;47998;53.242;6.386;2023-07-13T15:06:18;2.72;;;0.98;;
51578;SDS011;47998;53.242;6.386;2023-07-13T15:08:45;3.72;;;1.10;;
51578;SDS011;47998;53.242;6.386;2023-07-13T15:11:11;3.33;;;0.95;;
51578;SDS011;47998;53.242;6.386;2023-07-13T15:13:40;5.45;;;1.35;;
51578;SDS011;47998;53.242;6.386;2023-07-13T15:16:17;4.55;;;1.65;;
51578;SDS011;47998;53.242;6.386;2023-07-13T15:18:46;7.25;;;1.83;;
51578;SDS011;47998;53.242;6.386;2023-07-13T15:21:22;6.68;;;1.40;;
51578;SDS011;47998;53.242;6.386;2023-07-13T15:23:49;3.97;;;1.35;;
51578;SDS011;47998;53.242;6.386;2023-07-13T15:26:16;4.57;;;1.13;;
51578;SDS011;47998;53.242;6.386;2023-07-13T15:28:43;3.78;;;1.50;;
51578;SDS011;47998;53.242;6.386;2023-07-13T15:33:45;5.75;;;1.55;;
51578;SDS011;47998;53.242;6.386;2023-07-13T15:36:13;3.78;;;1.20;;
51578;SDS011;47998;53.242;6.386;2023-07-13T15:38:40;4.03;;;1.30;;